Station: Price

  Atmospheric Gas Attenuation - ITU Rec 676-11   --------------- db/100km ---------------
Date Time Temp RH % AH g/m3 Dew Point Wind Direction Speed kph Gust kph Barometer mB Rainfall Since 9am 24GHz 47GHz 76GHz 122GHz 134GHz 241GHz
09 09:00 7.6 94 7.58 6.7 6 1013.1 0 17.7 26.0 38.7 101.4 92.3 316.1
08 09:00 8 94 7.77 7.1 9 1013.1 0.4 18.1 26.2 39.3 103.0 94.4 323.7
03 09:00 12.4 96 10.49 11.8 20 1013.1 0.6 23.7 29.5 48.5 127.7 126.5 436.6
02 09:00 10.4 96 9.25 9.8 9 1013.1 3 21.2 28.0 44.3 116.5 111.9 385.4
30 09:00 10 93 8.74 9 22 1013.1 0 20.1 27.3 42.3 111.2 105.3 362.2
29 09:00 8.2 91 7.62 6.9 7 1013.1 0 17.7 25.9 38.6 101.1 92.1 315.6
26 09:00 10 99 9.3 9.8 2 1013.1 0 21.3 28.2 44.8 117.6 113.2 389.9
24 09:00 12.1 93 9.97 11 11 1013.1 0 22.6 28.7 46.4 122.1 119.6 412.3
23 09:00 11.3 96 9.79 10.7 4 1013.1 0 22.3 28.7 46.1 121.3 118.3 407.6
18 09:00 11 93 9.31 10 15 1013.1 0 21.3 27.9 44.2 116.3 111.9 385.3
17 09:00 10 97 9.12 9.6 2 1013.1 0.4 20.9 27.9 44.0 115.6 110.7 380.9
15 09:00 12.7 99 11.02 12.5 11 1013.1 4 24.9 30.4 50.7 133.4 133.7 461.7
09 09:00 8 86 7.11 5.8 4 1013.1 0 16.7 25.1 36.5 95.7 85.4 292.1
05 09:00 8.6 86 7.39 6.4 4 1013.1 0 17.2 25.4 37.4 98.0 88.5 303.1
03 09:00 13.1 87 9.93 11 19 1013.1 1 22.5 28.3 45.7 120.1 117.5 405.0
02 09:00 13.6 97 11.42 13.2 13 1013.1 0.5 25.7 30.8 51.9 136.6 137.9 476.6
29 09:00 11.4 91 9.34 10 2 1013.1 0 21.3 27.9 44.1 116.0 111.7 384.8
28 09:00 13.6 94 11.06 12.7 7 1013.1 0 24.9 30.1 50.3 132.3 132.7 458.4
25 09:00 10 88 8.27 8.2 7 1013.1 4 19.1 26.5 40.4 105.9 98.8 339.4
22 09:00 12.6 94 10.4 11.7 7 1013.1 0.1 23.5 29.3 48.0 126.3 124.9 431.0
21 09:00 11.6 82 8.52 8.6 15 1013.1 6 19.5 26.4 40.6 106.5 100.1 344.3
20 09:00 13 77 8.73 9.1 9 1013.1 0.3 19.9 26.3 40.7 106.9 101.1 348.0
19 09:00 18 66 10.14 11.6 22 1013.1 0 22.7 27.1 43.8 115.1 113.0 390.0
15 09:00 8 86 7.11 5.8 4 1013.1 0 16.7 25.1 36.5 95.7 85.4 292.1
14 09:00 10.5 69 6.69 5 0 1013.1 0 15.7 23.8 33.8 88.3 77.2 263.9
13 09:00 13.1 96 10.96 12.5 2 1013.1 0 24.7 30.1 50.1 132.0 132.1 456.3
12 09:00 14.5 83 10.32 11.7 37 1013.1 0 23.2 28.5 46.5 122.3 120.7 416.6
11 09:00 13.1 92 10.5 11.8 2 1013.1 1 23.7 29.3 48.1 126.7 125.5 433.2
08 09:00 15.2 94 12.2 14.3 19 1013.1 0.6 27.2 31.6 54.2 143.0 146.3 506.2
07 09:00 19.5 89 14.94 17.7 9 1013.1 0 32.8 34.9 63.3 167.3 177.7 616.2
06 09:00 14.5 89 11.07 12.7 19 1013.1 0 24.8 29.8 49.7 130.9 131.3 453.5
05 09:00 13.5 88 10.29 11.6 6 1013.1 0 23.2 28.8 47.0 123.6 121.9 420.6
30 09:00 12.5 71 7.81 7.4 22 1013.1 2 18.0 25.0 37.3 97.7 89.6 307.5
29 09:00 14.4 84 10.38 11.8 4 1013.1 1 23.4 28.7 46.8 123.2 121.7 420.1
28 09:00 15.7 84 11.24 13 4 1013.1 0 25.1 29.7 49.7 130.9 131.6 454.9
27 09:00 14 83 10.01 11.2 15 1013.1 21 22.6 28.2 45.5 119.6 117.2 404.2
24 09:00 16.3 90 12.49 14.7 4 1013.1 16 27.8 31.7 54.7 144.3 148.4 513.6
23 09:00 18 95 14.59 17.2 7 1013.1 0.8 32.2 34.9 63.0 166.3 176.0 609.9
20 09:00 18.5 85 13.45 16 19 1013.1 5 29.7 32.6 57.4 151.5 157.9 547.1
15 09:00 23.5 67 14.17 17 17 1013.1 0 30.8 32.0 56.8 150.0 157.8 547.2
09 09:00 16.2 90 12.41 14.5 9 1013.1 0 27.6 31.6 54.5 143.6 147.5 510.2
08 09:00 15.2 92 11.94 14 22 1013.1 0 26.7 31.1 53.1 139.9 142.5 492.9
07 09:00 17 90 13.02 15.3 4 1013.1 0 28.9 32.4 56.6 149.3 154.8 535.8
06 09:00 16.7 87 12.36 14.6 4 1013.1 10 27.5 31.3 53.9 142.1 145.8 504.4
03 09:00 17.5 100 14.91 17.5 0 1013.1 0 32.9 35.7 64.9 171.4 182.1 631.0
02 09:00 13.9 100 11.99 13.9 0 1013.1 0 26.9 31.7 54.2 142.9 145.8 504.0
31 09:00 16.2 100 13.79 16.2 0 1013.1 0 30.6 34.1 60.7 160.3 168.0 581.8
20 09:00 18 100 15.36 18 6 1013.1 0 33.8 36.3 66.6 175.9 187.8 651.0
18 09:00 26 73 17.77 20.9 11 1013.1 0 38.2 37.3 70.5 186.5 203.3 706.3
17 09:00 21.4 78 14.62 17.5 6 1013.1 0 32.0 33.5 60.4 159.4 168.6 584.8
16 09:00 16.8 78 11.15 12.9 11 1013.1 0 24.9 29.2 48.6 128.0 128.5 444.1
11 12:00 23.9 84 18.17 21 6 1013.1 39.3 39.0 74.4 196.7 215.2 747.3
10 09:00 19.7 66 11.21 13.2 7 1013.1 0 24.8 28.3 47.1 124.0 124.5 430.7
03 09:00 15.5 89 11.76 13.7 22 1013.1 0 26.3 30.7 52.1 137.2 139.4 482.0
02 09:00 17.5 75 11.18 13.1 28 1013.1 0.9 24.9 29.0 48.3 127.2 127.7 441.5
13 09:00 20.9 95 17.3 20.1 7 1013.1 0 37.7 38.7 73.2 193.4 210.3 729.7
11 09:00 21.7 97 18.5 21.2 15 1013.1 0 40.2 40.7 78.2 206.8 226.9 787.7
10 09:00 23.3 84 17.56 20.5 4 1013.1 0 38.1 38.1 72.1 190.6 207.6 720.6
07 09:00 23 89 18.29 21.2 11 1013.1 0 39.7 39.6 75.8 200.5 219.7 762.8
06 09:00 20.5 84 14.95 17.8 6 1013.1 0 32.7 34.5 62.6 165.2 175.5 608.6
03 09:00 18 84 12.9 15.3 19 1013.1 22 28.5 31.8 55.3 146.0 151.0 522.8
28 09:00 20.6 90 16.11 18.9 6 1013.1 0 35.2 36.6 67.8 179.2 192.7 668.4
24 09:00 18.8 78 12.56 14.9 11 1013.1 0 27.8 30.9 53.3 140.5 144.6 500.6
23 09:00 17.5 83 12.37 14.7 19 1013.1 0 27.4 31.0 53.4 140.7 144.4 499.7
22 09:00 24.8 69 15.71 18.7 19 1013.1 0 34.0 34.1 62.4 164.9 176.5 612.7
16 09:00 19.5 75 12.59 14.9 15 1013.1 0 27.8 30.7 53.0 139.6 143.7 497.6
14 09:00 22.2 93 18.26 21.1 19 1013.1 0 39.7 40.0 76.5 202.3 221.6 769.3
10 09:00 24 91 19.8 22.5 15 1013.1 0 42.8 42.1 82.1 217.2 240.5 835.1
09 09:00 28.1 38 10.39 12.6 0 1013.1 0 22.6 24.6 39.5 103.8 102.3 353.9
08 09:00 24.5 55 12.31 15 6 1013.1 0 26.9 28.6 48.6 128.0 131.1 454.1
06 09:00 18 71 10.9 12.7 15 1013.1 3 24.3 28.4 46.8 123.3 123.1 425.4
03 09:00 27.7 31 8.29 9.4 15 1013.1 0 18.3 21.8 32.5 85.2 79.2 272.9
19 09:00 27.1 99 25.62 27 11 1013.1 0 54.8 52.3 108.1 286.3 326.0 1132.6
18 09:00 32.7 98 34.35 32.4 7 1013.1 0 72.4 67.7 147.5 390.9 455.6 1582.4
17 09:00 26.5 100 25.03 26.5 0 1013.1 0 53.6 51.4 105.8 280.2 318.4 1106.0
12 09:00 18 98 15.05 17.7 19 1013.1 1 33.2 35.7 65.1 172.0 183.0 634.3
27 09:00 17 69 9.98 11.3 7 1013.1 0 22.4 27.2 43.7 114.8 112.3 387.6
19 09:00 17.9 96 14.66 17.2 7 1013.1 0 32.3 35.0 63.4 167.4 177.3 614.4
15 09:00 17 75 10.85 12.5 7 1013.1 0 24.2 28.6 47.2 124.3 124.0 428.6
08 09:00 13.5 87 10.18 11.4 37 1013.1 28 23.0 28.6 46.5 122.3 120.3 415.2
02 09:00 10.6 95 9.27 9.8 0 1013.1 44 21.2 28.0 44.3 116.4 111.9 385.4

Last Refresh: 13-Jul-2020 07:15:22

Most of the information presented on this site is sourced from the Bureau of Meteorology.  Copyright in all material sourced from the Bureau of Meteorology resides with the Commonwealth of Australia.